sensor_id;sensor_type;location;lat;lon;timestamp;temperature;humidity
48752;DHT22;34544;48.836;9.174;2023-02-13T00:02:06;0.80;99.90
48752;DHT22;34544;48.836;9.174;2023-02-13T00:04:31;0.80;99.90
48752;DHT22;34544;48.836;9.174;2023-02-13T00:06:57;0.70;99.90
48752;DHT22;34544;48.836;9.174;2023-02-13T00:09:22;0.70;99.90
48752;DHT22;34544;48.836;9.174;2023-02-13T00:11:48;0.70;99.90
48752;DHT22;34544;48.836;9.174;2023-02-13T00:14:14;0.70;99.90
48752;DHT22;34544;48.836;9.174;2023-02-13T00:16:39;0.60;99.90
48752;DHT22;34544;48.836;9.174;2023-02-13T00:19:05;0.60;99.90
48752;DHT22;34544;48.836;9.174;2023-02-13T00:21:31;0.60;99.90
48752;DHT22;34544;48.836;9.174;2023-02-13T00:23:56;0.50;99.90
48752;DHT22;34544;48.836;9.174;2023-02-13T00:26:22;0.60;99.90
48752;DHT22;34544;48.836;9.174;2023-02-13T00:28:48;0.50;99.90
48752;DHT22;34544;48.836;9.174;2023-02-13T00:31:16;0.50;99.90
48752;DHT22;34544;48.836;9.174;2023-02-13T00:33:42;0.40;99.90
48752;DHT22;34544;48.836;9.174;2023-02-13T00:36:11;0.40;99.90
48752;DHT22;34544;48.836;9.174;2023-02-13T00:38:38;0.40;99.90
48752;DHT22;34544;48.836;9.174;2023-02-13T00:41:05;0.40;99.90
48752;DHT22;34544;48.836;9.174;2023-02-13T00:43:31;0.40;99.90
48752;DHT22;34544;48.836;9.174;2023-02-13T00:45:56;0.30;99.90
48752;DHT22;34544;48.836;9.174;2023-02-13T00:48:26;0.30;99.90
48752;DHT22;34544;48.836;9.174;2023-02-13T00:50:51;0.30;99.90
48752;DHT22;34544;48.836;9.174;2023-02-13T00:53:18;0.30;99.90
48752;DHT22;34544;48.836;9.174;2023-02-13T00:55:46;0.30;99.90
48752;DHT22;34544;48.836;9.174;2023-02-13T00:58:12;0.20;99.90
48752;DHT22;34544;48.836;9.174;2023-02-13T01:00:38;0.20;99.90
48752;DHT22;34544;48.836;9.174;2023-02-13T01:03:05;0.20;99.90
48752;DHT22;34544;48.836;9.174;2023-02-13T01:05:31;0.20;99.90
48752;DHT22;34544;48.836;9.174;2023-02-13T01:07:57;0.20;99.90
48752;DHT22;34544;48.836;9.174;2023-02-13T01:10:23;0.20;99.90
48752;DHT22;34544;48.836;9.174;2023-02-13T01:12:48;0.20;99.90
48752;DHT22;34544;48.836;9.174;2023-02-13T01:15:14;0.20;99.90
48752;DHT22;34544;48.836;9.174;2023-02-13T01:17:40;0.10;99.90
48752;DHT22;34544;48.836;9.174;2023-02-13T01:20:07;0.10;99.90
48752;DHT22;34544;48.836;9.174;2023-02-13T01:22:33;0.10;99.90
48752;DHT22;34544;48.836;9.174;2023-02-13T01:24:59;0.10;99.90
48752;DHT22;34544;48.836;9.174;2023-02-13T01:27:29;0.10;99.90
48752;DHT22;34544;48.836;9.174;2023-02-13T01:29:55;0.10;99.90
48752;DHT22;34544;48.836;9.174;2023-02-13T01:32:21;0.10;99.90
48752;DHT22;34544;48.836;9.174;2023-02-13T01:34:46;0.10;99.90
48752;DHT22;34544;48.836;9.174;2023-02-13T01:37:13;0.10;99.90
48752;DHT22;34544;48.836;9.174;2023-02-13T01:39:39;0.10;99.90
48752;DHT22;34544;48.836;9.174;2023-02-13T01:42:05;0.00;99.90
48752;DHT22;34544;48.836;9.174;2023-02-13T01:44:49;0.00;99.90
48752;DHT22;34544;48.836;9.174;2023-02-13T01:52:38;0.00;99.90
48752;DHT22;34544;48.836;9.174;2023-02-13T01:55:06;0.00;99.90
48752;DHT22;34544;48.836;9.174;2023-02-13T01:57:33;-0.10;99.90
48752;DHT22;34544;48.836;9.174;2023-02-13T02:00:07;-0.10;99.90
48752;DHT22;34544;48.836;9.174;2023-02-13T02:02:49;-0.10;99.90
48752;DHT22;34544;48.836;9.174;2023-02-13T02:05:20;-0.10;99.90
48752;DHT22;34544;48.836;9.174;2023-02-13T02:07:46;-0.10;99.90
48752;DHT22;34544;48.836;9.174;2023-02-13T02:10:17;-0.10;99.90
48752;DHT22;34544;48.836;9.174;2023-02-13T02:13:12;-0.10;99.90
48752;DHT22;34544;48.836;9.174;2023-02-13T02:15:39;-0.10;99.90
48752;DHT22;34544;48.836;9.174;2023-02-13T02:18:18;-0.10;99.90
48752;DHT22;34544;48.836;9.174;2023-02-13T02:34:55;-0.20;99.90
48752;DHT22;34544;48.836;9.174;2023-02-13T02:37:39;-0.30;99.90
48752;DHT22;34544;48.836;9.174;2023-02-13T02:43:28;-0.30;99.90
48752;DHT22;34544;48.836;9.174;2023-02-13T02:46:23;-0.30;99.90
48752;DHT22;34544;48.836;9.174;2023-02-13T02:49:06;-0.30;99.90
48752;DHT22;34544;48.836;9.174;2023-02-13T02:52:13;-0.40;99.90
48752;DHT22;34544;48.836;9.174;2023-02-13T02:55:04;-0.40;99.90
48752;DHT22;34544;48.836;9.174;2023-02-13T02:57:45;-0.40;99.90
48752;DHT22;34544;48.836;9.174;2023-02-13T03:00:33;-0.40;99.90
48752;DHT22;34544;48.836;9.174;2023-02-13T03:03:21;-0.40;99.90
48752;DHT22;34544;48.836;9.174;2023-02-13T03:06:37;-0.50;99.90
48752;DHT22;34544;48.836;9.174;2023-02-13T03:09:13;-0.50;99.90
48752;DHT22;34544;48.836;9.174;2023-02-13T03:11:59;-0.50;99.90
48752;DHT22;34544;48.836;9.174;2023-02-13T03:14:44;-0.50;99.90
48752;DHT22;34544;48.836;9.174;2023-02-13T03:17:13;-0.50;99.90
48752;DHT22;34544;48.836;9.174;2023-02-13T03:20:38;-0.50;99.90
48752;DHT22;34544;48.836;9.174;2023-02-13T03:26:37;-0.50;99.90
48752;DHT22;34544;48.836;9.174;2023-02-13T03:35:01;-0.50;99.90
48752;DHT22;34544;48.836;9.174;2023-02-13T03:37:49;-0.50;99.90
48752;DHT22;34544;48.836;9.174;2023-02-13T03:40:42;-0.50;99.90
48752;DHT22;34544;48.836;9.174;2023-02-13T03:43:37;-0.50;99.90
48752;DHT22;34544;48.836;9.174;2023-02-13T03:46:06;-0.50;99.90
48752;DHT22;34544;48.836;9.174;2023-02-13T03:48:35;-0.50;99.90
48752;DHT22;34544;48.836;9.174;2023-02-13T03:51:33;-0.50;99.90
48752;DHT22;34544;48.836;9.174;2023-02-13T03:54:06;-0.60;99.90
48752;DHT22;34544;48.836;9.174;2023-02-13T03:56:39;-0.60;99.90
48752;DHT22;34544;48.836;9.174;2023-02-13T03:59:29;-0.60;99.90
48752;DHT22;34544;48.836;9.174;2023-02-13T04:02:12;-0.60;99.90
48752;DHT22;34544;48.836;9.174;2023-02-13T04:05:06;-0.60;99.90
48752;DHT22;34544;48.836;9.174;2023-02-13T04:07:33;-0.60;99.90
48752;DHT22;34544;48.836;9.174;2023-02-13T04:10:07;-0.60;99.90
48752;DHT22;34544;48.836;9.174;2023-02-13T04:12:38;-0.70;99.90
48752;DHT22;34544;48.836;9.174;2023-02-13T04:15:14;-0.60;99.90
48752;DHT22;34544;48.836;9.174;2023-02-13T04:17:48;-0.70;99.90
48752;DHT22;34544;48.836;9.174;2023-02-13T04:20:16;-0.70;99.90
48752;DHT22;34544;48.836;9.174;2023-02-13T04:22:46;-0.70;99.90
48752;DHT22;34544;48.836;9.174;2023-02-13T04:25:14;-0.70;99.90
48752;DHT22;34544;48.836;9.174;2023-02-13T04:27:40;-0.80;99.90
48752;DHT22;34544;48.836;9.174;2023-02-13T04:30:06;-0.80;99.90
48752;DHT22;34544;48.836;9.174;2023-02-13T04:32:33;-0.80;99.90
48752;DHT22;34544;48.836;9.174;2023-02-13T04:34:59;-0.80;99.90
48752;DHT22;34544;48.836;9.174;2023-02-13T04:37:25;-0.90;99.90
48752;DHT22;34544;48.836;9.174;2023-02-13T04:39:50;-0.90;99.90
48752;DHT22;34544;48.836;9.174;2023-02-13T04:42:16;-0.90;99.90
48752;DHT22;34544;48.836;9.174;2023-02-13T04:44:42;-0.90;99.90
48752;DHT22;34544;48.836;9.174;2023-02-13T04:47:07;-0.90;99.90
48752;DHT22;34544;48.836;9.174;2023-02-13T04:49:33;-0.90;99.90
48752;DHT22;34544;48.836;9.174;2023-02-13T04:51:58;-0.90;99.90
48752;DHT22;34544;48.836;9.174;2023-02-13T04:54:24;-0.90;99.90
48752;DHT22;34544;48.836;9.174;2023-02-13T04:56:50;-0.90;99.90
48752;DHT22;34544;48.836;9.174;2023-02-13T04:59:15;-0.90;99.90
48752;DHT22;34544;48.836;9.174;2023-02-13T05:01:41;-1.00;99.90
48752;DHT22;34544;48.836;9.174;2023-02-13T05:04:06;-1.00;99.90
48752;DHT22;34544;48.836;9.174;2023-02-13T05:06:32;-1.00;99.90
48752;DHT22;34544;48.836;9.174;2023-02-13T05:08:58;-1.00;99.90
48752;DHT22;34544;48.836;9.174;2023-02-13T05:11:23;-1.00;99.90
48752;DHT22;34544;48.836;9.174;2023-02-13T05:13:49;-1.00;99.90
48752;DHT22;34544;48.836;9.174;2023-02-13T05:16:14;-1.00;99.90
48752;DHT22;34544;48.836;9.174;2023-02-13T05:18:40;-1.00;99.90
48752;DHT22;34544;48.836;9.174;2023-02-13T05:21:06;-1.00;99.90
48752;DHT22;34544;48.836;9.174;2023-02-13T05:23:50;-1.00;99.90
48752;DHT22;34544;48.836;9.174;2023-02-13T05:26:15;-1.00;99.90
48752;DHT22;34544;48.836;9.174;2023-02-13T05:28:41;-1.00;99.90
48752;DHT22;34544;48.836;9.174;2023-02-13T05:31:25;-1.00;99.90
48752;DHT22;34544;48.836;9.174;2023-02-13T05:33:51;-1.00;99.90
48752;DHT22;34544;48.836;9.174;2023-02-13T05:36:17;-1.00;99.90
48752;DHT22;34544;48.836;9.174;2023-02-13T05:38:43;-1.00;99.90
48752;DHT22;34544;48.836;9.174;2023-02-13T05:41:08;-1.00;99.90
48752;DHT22;34544;48.836;9.174;2023-02-13T05:43:34;-1.00;99.90
48752;DHT22;34544;48.836;9.174;2023-02-13T05:46:01;-1.00;99.90
48752;DHT22;34544;48.836;9.174;2023-02-13T05:48:27;-1.00;99.90
48752;DHT22;34544;48.836;9.174;2023-02-13T05:50:53;-1.00;99.90
48752;DHT22;34544;48.836;9.174;2023-02-13T05:53:18;-1.00;99.90
48752;DHT22;34544;48.836;9.174;2023-02-13T05:55:45;-1.00;99.90
48752;DHT22;34544;48.836;9.174;2023-02-13T05:58:10;-1.00;99.90
48752;DHT22;34544;48.836;9.174;2023-02-13T06:00:36;-1.00;99.90
48752;DHT22;34544;48.836;9.174;2023-02-13T06:03:02;-1.00;99.90
48752;DHT22;34544;48.836;9.174;2023-02-13T06:05:27;-1.00;99.90
48752;DHT22;34544;48.836;9.174;2023-02-13T06:07:53;-1.00;99.90
48752;DHT22;34544;48.836;9.174;2023-02-13T06:10:19;-1.00;99.90
48752;DHT22;34544;48.836;9.174;2023-02-13T06:12:44;-1.00;99.90
48752;DHT22;34544;48.836;9.174;2023-02-13T06:15:10;-1.00;99.90
48752;DHT22;34544;48.836;9.174;2023-02-13T06:17:35;-1.00;99.90
48752;DHT22;34544;48.836;9.174;2023-02-13T06:20:01;-1.00;99.90
48752;DHT22;34544;48.836;9.174;2023-02-13T06:22:27;-1.00;99.90
48752;DHT22;34544;48.836;9.174;2023-02-13T06:24:53;-1.00;99.90
48752;DHT22;34544;48.836;9.174;2023-02-13T06:27:18;-1.10;99.90
48752;DHT22;34544;48.836;9.174;2023-02-13T06:29:44;-1.10;99.90
48752;DHT22;34544;48.836;9.174;2023-02-13T06:32:10;-1.10;99.90
48752;DHT22;34544;48.836;9.174;2023-02-13T06:34:35;-1.10;99.90
48752;DHT22;34544;48.836;9.174;2023-02-13T06:37:01;-1.10;99.90
48752;DHT22;34544;48.836;9.174;2023-02-13T06:39:27;-1.10;99.90
48752;DHT22;34544;48.836;9.174;2023-02-13T06:41:52;-1.10;99.90
48752;DHT22;34544;48.836;9.174;2023-02-13T06:44:18;-1.10;99.90
48752;DHT22;34544;48.836;9.174;2023-02-13T06:46:44;-1.00;99.90
48752;DHT22;34544;48.836;9.174;2023-02-13T06:49:09;-1.00;99.90
48752;DHT22;34544;48.836;9.174;2023-02-13T06:51:35;-1.00;99.90
48752;DHT22;34544;48.836;9.174;2023-02-13T06:54:00;-1.00;99.90
48752;DHT22;34544;48.836;9.174;2023-02-13T06:56:27;-0.90;99.90
48752;DHT22;34544;48.836;9.174;2023-02-13T06:58:52;-0.90;99.90
48752;DHT22;34544;48.836;9.174;2023-02-13T07:01:18;-1.00;99.90
48752;DHT22;34544;48.836;9.174;2023-02-13T07:03:43;-0.90;99.90
48752;DHT22;34544;48.836;9.174;2023-02-13T07:06:10;-0.90;99.90
48752;DHT22;34544;48.836;9.174;2023-02-13T07:08:40;-0.90;99.90
48752;DHT22;34544;48.836;9.174;2023-02-13T07:11:06;-0.80;99.90
48752;DHT22;34544;48.836;9.174;2023-02-13T07:13:32;-0.80;99.90
48752;DHT22;34544;48.836;9.174;2023-02-13T07:15:59;-0.70;99.90
48752;DHT22;34544;48.836;9.174;2023-02-13T07:18:25;-0.70;99.90
48752;DHT22;34544;48.836;9.174;2023-02-13T07:20:51;-0.70;99.90
48752;DHT22;34544;48.836;9.174;2023-02-13T07:23:16;-0.60;99.90
48752;DHT22;34544;48.836;9.174;2023-02-13T07:25:42;-0.50;99.90
48752;DHT22;34544;48.836;9.174;2023-02-13T07:28:08;-0.30;99.90
48752;DHT22;34544;48.836;9.174;2023-02-13T07:30:34;0.00;99.90
48752;DHT22;34544;48.836;9.174;2023-02-13T07:33:00;0.30;99.90
48752;DHT22;34544;48.836;9.174;2023-02-13T07:35:26;0.60;99.90
48752;DHT22;34544;48.836;9.174;2023-02-13T07:37:53;0.90;99.90
48752;DHT22;34544;48.836;9.174;2023-02-13T07:40:19;1.10;99.90
48752;DHT22;34544;48.836;9.174;2023-02-13T07:42:45;1.50;99.90
48752;DHT22;34544;48.836;9.174;2023-02-13T07:45:10;1.90;99.90
48752;DHT22;34544;48.836;9.174;2023-02-13T07:47:36;2.20;99.90
48752;DHT22;34544;48.836;9.174;2023-02-13T07:50:03;2.50;99.90
48752;DHT22;34544;48.836;9.174;2023-02-13T07:52:30;2.80;99.90
48752;DHT22;34544;48.836;9.174;2023-02-13T07:54:56;3.00;99.90
48752;DHT22;34544;48.836;9.174;2023-02-13T07:57:22;3.20;99.90
48752;DHT22;34544;48.836;9.174;2023-02-13T07:59:49;3.50;99.90
48752;DHT22;34544;48.836;9.174;2023-02-13T08:02:14;3.70;99.90
48752;DHT22;34544;48.836;9.174;2023-02-13T08:04:41;3.90;99.90
48752;DHT22;34544;48.836;9.174;2023-02-13T08:07:11;4.30;99.90
48752;DHT22;34544;48.836;9.174;2023-02-13T08:09:37;4.60;99.90
48752;DHT22;34544;48.836;9.174;2023-02-13T08:12:22;4.80;99.90
48752;DHT22;34544;48.836;9.174;2023-02-13T08:14:47;5.10;99.90
48752;DHT22;34544;48.836;9.174;2023-02-13T08:17:13;5.30;99.90
48752;DHT22;34544;48.836;9.174;2023-02-13T08:19:39;5.60;99.90
48752;DHT22;34544;48.836;9.174;2023-02-13T08:22:04;5.90;99.90
48752;DHT22;34544;48.836;9.174;2023-02-13T08:24:31;6.10;99.90
48752;DHT22;34544;48.836;9.174;2023-02-13T08:26:57;6.40;99.90
48752;DHT22;34544;48.836;9.174;2023-02-13T08:29:23;6.60;99.90
48752;DHT22;34544;48.836;9.174;2023-02-13T08:31:48;6.70;99.90
48752;DHT22;34544;48.836;9.174;2023-02-13T08:34:14;6.80;99.90
48752;DHT22;34544;48.836;9.174;2023-02-13T08:36:40;6.80;99.90
48752;DHT22;34544;48.836;9.174;2023-02-13T08:39:08;6.80;99.90
48752;DHT22;34544;48.836;9.174;2023-02-13T08:41:34;6.90;99.90
48752;DHT22;34544;48.836;9.174;2023-02-13T08:44:00;7.20;99.90
48752;DHT22;34544;48.836;9.174;2023-02-13T08:46:25;7.40;99.90
48752;DHT22;34544;48.836;9.174;2023-02-13T08:48:51;7.60;99.90
48752;DHT22;34544;48.836;9.174;2023-02-13T08:51:17;7.70;99.90
48752;DHT22;34544;48.836;9.174;2023-02-13T08:53:42;7.80;99.90
48752;DHT22;34544;48.836;9.174;2023-02-13T08:56:08;7.90;99.90
48752;DHT22;34544;48.836;9.174;2023-02-13T08:58:34;8.10;99.90
48752;DHT22;34544;48.836;9.174;2023-02-13T09:01:03;8.10;99.90
48752;DHT22;34544;48.836;9.174;2023-02-13T09:03:29;8.20;99.90
48752;DHT22;34544;48.836;9.174;2023-02-13T09:05:58;8.40;99.90
48752;DHT22;34544;48.836;9.174;2023-02-13T09:08:24;8.50;99.90
48752;DHT22;34544;48.836;9.174;2023-02-13T09:10:58;8.50;99.90
48752;DHT22;34544;48.836;9.174;2023-02-13T09:13:27;8.60;99.90
48752;DHT22;34544;48.836;9.174;2023-02-13T09:15:53;8.80;99.90
48752;DHT22;34544;48.836;9.174;2023-02-13T09:18:19;9.00;99.90
48752;DHT22;34544;48.836;9.174;2023-02-13T09:20:44;9.10;99.90
48752;DHT22;34544;48.836;9.174;2023-02-13T09:23:10;9.30;99.90
48752;DHT22;34544;48.836;9.174;2023-02-13T09:25:36;9.20;99.90
48752;DHT22;34544;48.836;9.174;2023-02-13T09:28:01;9.10;99.90
48752;DHT22;34544;48.836;9.174;2023-02-13T09:30:27;9.40;99.90
48752;DHT22;34544;48.836;9.174;2023-02-13T09:32:53;9.70;99.90
48752;DHT22;34544;48.836;9.174;2023-02-13T09:35:20;9.90;99.90
48752;DHT22;34544;48.836;9.174;2023-02-13T09:37:46;9.90;99.90
48752;DHT22;34544;48.836;9.174;2023-02-13T09:40:34;10.10;99.90
48752;DHT22;34544;48.836;9.174;2023-02-13T09:43:27;10.40;99.90
48752;DHT22;34544;48.836;9.174;2023-02-13T09:45:57;10.90;99.90
48752;DHT22;34544;48.836;9.174;2023-02-13T09:48:29;11.30;99.90
48752;DHT22;34544;48.836;9.174;2023-02-13T09:50:56;11.70;99.90
48752;DHT22;34544;48.836;9.174;2023-02-13T09:53:24;12.10;99.90
48752;DHT22;34544;48.836;9.174;2023-02-13T09:58:45;13.10;99.90
48752;DHT22;34544;48.836;9.174;2023-02-13T10:01:30;13.20;99.90
48752;DHT22;34544;48.836;9.174;2023-02-13T10:06:48;13.50;99.90
48752;DHT22;34544;48.836;9.174;2023-02-13T10:15:23;14.70;99.90
48752;DHT22;34544;48.836;9.174;2023-02-13T10:17:59;14.90;99.90
48752;DHT22;34544;48.836;9.174;2023-02-13T10:20:47;15.20;99.90
48752;DHT22;34544;48.836;9.174;2023-02-13T10:25:57;15.60;99.90
48752;DHT22;34544;48.836;9.174;2023-02-13T10:28:44;15.40;99.90
48752;DHT22;34544;48.836;9.174;2023-02-13T10:31:21;14.90;99.90
48752;DHT22;34544;48.836;9.174;2023-02-13T10:33:50;14.70;99.90
48752;DHT22;34544;48.836;9.174;2023-02-13T10:36:31;14.70;99.90
48752;DHT22;34544;48.836;9.174;2023-02-13T10:39:04;14.80;99.90
48752;DHT22;34544;48.836;9.174;2023-02-13T10:50:13;16.10;98.60
48752;DHT22;34544;48.836;9.174;2023-02-13T10:52:55;15.90;99.00
48752;DHT22;34544;48.836;9.174;2023-02-13T11:01:01;15.80;99.20
48752;DHT22;34544;48.836;9.174;2023-02-13T11:03:29;15.90;98.50
48752;DHT22;34544;48.836;9.174;2023-02-13T11:05:57;15.70;98.90
48752;DHT22;34544;48.836;9.174;2023-02-13T11:08:30;15.40;98.90
48752;DHT22;34544;48.836;9.174;2023-02-13T11:10:57;15.20;99.10
48752;DHT22;34544;48.836;9.174;2023-02-13T11:13:25;15.40;99.90
48752;DHT22;34544;48.836;9.174;2023-02-13T11:16:03;15.80;98.60
48752;DHT22;34544;48.836;9.174;2023-02-13T11:18:35;16.00;98.10
48752;DHT22;34544;48.836;9.174;2023-02-13T11:23:44;16.10;98.20
48752;DHT22;34544;48.836;9.174;2023-02-13T11:26:21;16.40;97.80
48752;DHT22;34544;48.836;9.174;2023-02-13T11:28:53;16.30;97.40
48752;DHT22;34544;48.836;9.174;2023-02-13T11:31:32;16.50;98.00
48752;DHT22;34544;48.836;9.174;2023-02-13T11:33:59;16.80;96.70
48752;DHT22;34544;48.836;9.174;2023-02-13T11:36:41;16.80;96.60
48752;DHT22;34544;48.836;9.174;2023-02-13T11:39:21;16.60;96.70
48752;DHT22;34544;48.836;9.174;2023-02-13T11:41:50;16.60;96.90
48752;DHT22;34544;48.836;9.174;2023-02-13T11:44:26;16.80;96.60
48752;DHT22;34544;48.836;9.174;2023-02-13T11:46:54;17.30;96.60
48752;DHT22;34544;48.836;9.174;2023-02-13T11:52:05;17.40;95.30
48752;DHT22;34544;48.836;9.174;2023-02-13T11:59:49;16.80;95.90
48752;DHT22;34544;48.836;9.174;2023-02-13T12:02:24;17.00;95.30
48752;DHT22;34544;48.836;9.174;2023-02-13T12:05:13;17.20;95.30
48752;DHT22;34544;48.836;9.174;2023-02-13T12:07:40;17.70;95.10
48752;DHT22;34544;48.836;9.174;2023-02-13T12:10:24;17.50;94.60
48752;DHT22;34544;48.836;9.174;2023-02-13T12:13:13;17.40;94.60
48752;DHT22;34544;48.836;9.174;2023-02-13T12:15:40;17.20;95.20
48752;DHT22;34544;48.836;9.174;2023-02-13T12:21:22;16.80;95.00
48752;DHT22;34544;48.836;9.174;2023-02-13T12:23:53;17.00;95.50
48752;DHT22;34544;48.836;9.174;2023-02-13T12:26:37;16.90;94.90
48752;DHT22;34544;48.836;9.174;2023-02-13T12:35:28;17.70;94.10
48752;DHT22;34544;48.836;9.174;2023-02-13T12:38:16;17.80;93.80
48752;DHT22;34544;48.836;9.174;2023-02-13T12:44:10;17.80;93.70
48752;DHT22;34544;48.836;9.174;2023-02-13T12:54:37;17.90;93.60
48752;DHT22;34544;48.836;9.174;2023-02-13T12:57:22;17.30;93.90
48752;DHT22;34544;48.836;9.174;2023-02-13T13:00:16;17.00;94.50
48752;DHT22;34544;48.836;9.174;2023-02-13T13:10:42;16.50;95.30
48752;DHT22;34544;48.836;9.174;2023-02-13T13:16:47;16.90;95.10
48752;DHT22;34544;48.836;9.174;2023-02-13T13:19:25;17.30;94.50
48752;DHT22;34544;48.836;9.174;2023-02-13T13:21:56;17.50;94.50
48752;DHT22;34544;48.836;9.174;2023-02-13T13:26:57;18.00;94.10
48752;DHT22;34544;48.836;9.174;2023-02-13T13:29:28;18.40;93.90
48752;DHT22;34544;48.836;9.174;2023-02-13T13:32:06;18.60;93.30
48752;DHT22;34544;48.836;9.174;2023-02-13T13:34:34;18.70;93.70
48752;DHT22;34544;48.836;9.174;2023-02-13T13:37:18;18.90;93.50
48752;DHT22;34544;48.836;9.174;2023-02-13T13:42:55;18.50;92.80
48752;DHT22;34544;48.836;9.174;2023-02-13T13:50:49;18.20;93.10
48752;DHT22;34544;48.836;9.174;2023-02-13T13:53:17;18.40;93.20
48752;DHT22;34544;48.836;9.174;2023-02-13T13:58:43;18.70;92.50
48752;DHT22;34544;48.836;9.174;2023-02-13T14:03:42;18.40;92.80
48752;DHT22;34544;48.836;9.174;2023-02-13T14:06:10;18.60;92.90
48752;DHT22;34544;48.836;9.174;2023-02-13T14:11:06;18.60;92.30
48752;DHT22;34544;48.836;9.174;2023-02-13T14:13:49;18.80;92.50
48752;DHT22;34544;48.836;9.174;2023-02-13T14:19:03;19.00;91.80
48752;DHT22;34544;48.836;9.174;2023-02-13T14:21:29;18.90;91.70
48752;DHT22;34544;48.836;9.174;2023-02-13T14:23:56;18.60;92.10
48752;DHT22;34544;48.836;9.174;2023-02-13T14:26:33;18.30;92.50
48752;DHT22;34544;48.836;9.174;2023-02-13T14:29:30;18.00;92.60
48752;DHT22;34544;48.836;9.174;2023-02-13T14:32:04;17.70;92.90
48752;DHT22;34544;48.836;9.174;2023-02-13T14:34:34;17.60;93.20
48752;DHT22;34544;48.836;9.174;2023-02-13T14:37:04;17.90;93.30
48752;DHT22;34544;48.836;9.174;2023-02-13T14:39:33;18.10;92.50
48752;DHT22;34544;48.836;9.174;2023-02-13T14:42:25;18.20;92.50
48752;DHT22;34544;48.836;9.174;2023-02-13T14:45:03;18.10;92.40
48752;DHT22;34544;48.836;9.174;2023-02-13T14:47:39;17.70;92.70
48752;DHT22;34544;48.836;9.174;2023-02-13T14:50:15;17.50;93.10
48752;DHT22;34544;48.836;9.174;2023-02-13T14:52:44;17.30;93.40
48752;DHT22;34544;48.836;9.174;2023-02-13T14:55:32;17.20;93.50
48752;DHT22;34544;48.836;9.174;2023-02-13T14:58:29;17.10;93.50
48752;DHT22;34544;48.836;9.174;2023-02-13T15:03:29;16.80;93.80
48752;DHT22;34544;48.836;9.174;2023-02-13T15:06:00;16.60;94.20
48752;DHT22;34544;48.836;9.174;2023-02-13T15:08:31;16.50;94.50
48752;DHT22;34544;48.836;9.174;2023-02-13T15:10:58;16.40;94.50
48752;DHT22;34544;48.836;9.174;2023-02-13T15:13:33;16.10;94.60
48752;DHT22;34544;48.836;9.174;2023-02-13T15:16:10;15.40;95.20
48752;DHT22;34544;48.836;9.174;2023-02-13T15:18:50;14.50;96.30
48752;DHT22;34544;48.836;9.174;2023-02-13T15:21:22;13.50;97.60
48752;DHT22;34544;48.836;9.174;2023-02-13T15:23:53;12.80;98.90
48752;DHT22;34544;48.836;9.174;2023-02-13T15:26:24;12.20;99.90
48752;DHT22;34544;48.836;9.174;2023-02-13T15:29:03;11.70;99.90
48752;DHT22;34544;48.836;9.174;2023-02-13T15:31:31;11.30;99.90
48752;DHT22;34544;48.836;9.174;2023-02-13T15:33:58;11.10;99.90
48752;DHT22;34544;48.836;9.174;2023-02-13T15:36:34;10.80;99.90
48752;DHT22;34544;48.836;9.174;2023-02-13T15:39:03;10.50;99.90
48752;DHT22;34544;48.836;9.174;2023-02-13T15:41:43;10.40;99.90
48752;DHT22;34544;48.836;9.174;2023-02-13T15:44:17;10.20;99.90
48752;DHT22;34544;48.836;9.174;2023-02-13T15:46:46;10.10;99.90
48752;DHT22;34544;48.836;9.174;2023-02-13T15:49:14;9.90;99.90
48752;DHT22;34544;48.836;9.174;2023-02-13T15:51:41;9.80;99.90
48752;DHT22;34544;48.836;9.174;2023-02-13T15:56:48;9.60;99.90
48752;DHT22;34544;48.836;9.174;2023-02-13T15:59:16;9.50;99.90
48752;DHT22;34544;48.836;9.174;2023-02-13T16:01:44;9.40;99.90
48752;DHT22;34544;48.836;9.174;2023-02-13T16:04:13;9.30;99.90
48752;DHT22;34544;48.836;9.174;2023-02-13T16:06:44;9.20;99.90
48752;DHT22;34544;48.836;9.174;2023-02-13T16:09:34;9.20;99.90
48752;DHT22;34544;48.836;9.174;2023-02-13T16:12:05;9.10;99.90
48752;DHT22;34544;48.836;9.174;2023-02-13T16:14:35;9.00;99.90
48752;DHT22;34544;48.836;9.174;2023-02-13T16:17:04;8.90;99.90
48752;DHT22;34544;48.836;9.174;2023-02-13T16:19:59;8.90;99.90
48752;DHT22;34544;48.836;9.174;2023-02-13T16:22:38;8.80;99.90
48752;DHT22;34544;48.836;9.174;2023-02-13T16:25:13;8.60;99.90
48752;DHT22;34544;48.836;9.174;2023-02-13T16:35:42;8.20;99.90
48752;DHT22;34544;48.836;9.174;2023-02-13T16:40:49;8.00;99.90
48752;DHT22;34544;48.836;9.174;2023-02-13T16:46:20;7.90;99.90
48752;DHT22;34544;48.836;9.174;2023-02-13T16:51:23;7.70;99.90
48752;DHT22;34544;48.836;9.174;2023-02-13T16:53:59;7.50;99.90
48752;DHT22;34544;48.836;9.174;2023-02-13T16:56:25;7.50;99.90
48752;DHT22;34544;48.836;9.174;2023-02-13T17:02:46;7.30;99.90
48752;DHT22;34544;48.836;9.174;2023-02-13T17:07:54;7.00;99.90
48752;DHT22;34544;48.836;9.174;2023-02-13T17:10:36;6.90;99.90
48752;DHT22;34544;48.836;9.174;2023-02-13T17:13:15;6.80;99.90
48752;DHT22;34544;48.836;9.174;2023-02-13T17:15:45;6.70;99.90
48752;DHT22;34544;48.836;9.174;2023-02-13T17:18:11;6.60;99.90
48752;DHT22;34544;48.836;9.174;2023-02-13T17:20:40;6.50;99.90
48752;DHT22;34544;48.836;9.174;2023-02-13T17:23:07;6.40;99.90
48752;DHT22;34544;48.836;9.174;2023-02-13T17:25:37;6.30;99.90
48752;DHT22;34544;48.836;9.174;2023-02-13T17:28:21;6.20;99.90
48752;DHT22;34544;48.836;9.174;2023-02-13T17:30:48;6.10;99.90
48752;DHT22;34544;48.836;9.174;2023-02-13T17:35:48;5.80;99.90
48752;DHT22;34544;48.836;9.174;2023-02-13T17:38:14;5.70;99.90
48752;DHT22;34544;48.836;9.174;2023-02-13T17:40:40;5.70;99.90
48752;DHT22;34544;48.836;9.174;2023-02-13T17:43:11;5.70;99.90
48752;DHT22;34544;48.836;9.174;2023-02-13T17:45:37;5.60;99.90
48752;DHT22;34544;48.836;9.174;2023-02-13T17:48:03;5.60;99.90
48752;DHT22;34544;48.836;9.174;2023-02-13T17:50:31;5.50;99.90
48752;DHT22;34544;48.836;9.174;2023-02-13T17:52:59;5.50;99.90
48752;DHT22;34544;48.836;9.174;2023-02-13T17:55:27;5.40;99.90
48752;DHT22;34544;48.836;9.174;2023-02-13T17:57:54;5.40;99.90
48752;DHT22;34544;48.836;9.174;2023-02-13T18:00:25;5.30;99.90
48752;DHT22;34544;48.836;9.174;2023-02-13T18:02:52;5.30;99.90
48752;DHT22;34544;48.836;9.174;2023-02-13T18:05:18;5.20;99.90
48752;DHT22;34544;48.836;9.174;2023-02-13T18:07:45;5.20;99.90
48752;DHT22;34544;48.836;9.174;2023-02-13T18:12:41;5.10;99.90
48752;DHT22;34544;48.836;9.174;2023-02-13T18:15:08;5.00;99.90
48752;DHT22;34544;48.836;9.174;2023-02-13T18:17:35;5.00;99.90
48752;DHT22;34544;48.836;9.174;2023-02-13T18:20:00;5.00;99.90
48752;DHT22;34544;48.836;9.174;2023-02-13T18:22:26;4.90;99.90
48752;DHT22;34544;48.836;9.174;2023-02-13T18:24:53;4.90;99.90
48752;DHT22;34544;48.836;9.174;2023-02-13T18:27:18;4.80;99.90
48752;DHT22;34544;48.836;9.174;2023-02-13T18:29:44;4.70;99.90
48752;DHT22;34544;48.836;9.174;2023-02-13T18:32:10;4.70;99.90
48752;DHT22;34544;48.836;9.174;2023-02-13T18:34:36;4.60;99.90
48752;DHT22;34544;48.836;9.174;2023-02-13T18:37:03;4.50;99.90
48752;DHT22;34544;48.836;9.174;2023-02-13T18:39:31;4.50;99.90